sensor_id;sensor_type;location;lat;lon;timestamp;P1;durP1;ratioP1;P2;durP2;ratioP2
56201;SDS011;42117;50.360;3.508;2022-12-07T00:00:31;10.18;;;5.60;;
56201;SDS011;42117;50.360;3.508;2022-12-07T00:02:57;17.27;;;6.97;;
56201;SDS011;42117;50.360;3.508;2022-12-07T00:05:23;6.85;;;4.50;;
56201;SDS011;42117;50.360;3.508;2022-12-07T00:07:49;16.80;;;6.72;;
56201;SDS011;42117;50.360;3.508;2022-12-07T00:10:15;9.02;;;5.57;;
56201;SDS011;42117;50.360;3.508;2022-12-07T00:12:41;11.73;;;7.10;;
56201;SDS011;42117;50.360;3.508;2022-12-07T00:15:07;11.05;;;6.13;;
56201;SDS011;42117;50.360;3.508;2022-12-07T00:17:33;6.90;;;5.72;;
56201;SDS011;42117;50.360;3.508;2022-12-07T00:20:00;8.35;;;5.72;;
56201;SDS011;42117;50.360;3.508;2022-12-07T00:22:26;8.35;;;4.97;;
56201;SDS011;42117;50.360;3.508;2022-12-07T00:24:52;19.27;;;6.18;;
56201;SDS011;42117;50.360;3.508;2022-12-07T00:27:18;8.00;;;5.90;;
56201;SDS011;42117;50.360;3.508;2022-12-07T00:29:44;5.95;;;5.10;;
56201;SDS011;42117;50.360;3.508;2022-12-07T00:32:10;8.93;;;3.95;;
56201;SDS011;42117;50.360;3.508;2022-12-07T00:34:36;6.43;;;3.78;;
56201;SDS011;42117;50.360;3.508;2022-12-07T00:37:02;4.13;;;2.67;;
56201;SDS011;42117;50.360;3.508;2022-12-07T00:39:28;10.07;;;5.72;;
56201;SDS011;42117;50.360;3.508;2022-12-07T00:41:54;11.30;;;5.72;;
56201;SDS011;42117;50.360;3.508;2022-12-07T00:44:20;14.48;;;6.60;;
56201;SDS011;42117;50.360;3.508;2022-12-07T00:46:46;4.30;;;2.97;;
56201;SDS011;42117;50.360;3.508;2022-12-07T00:49:12;18.20;;;7.05;;
56201;SDS011;42117;50.360;3.508;2022-12-07T00:51:38;8.50;;;5.60;;
56201;SDS011;42117;50.360;3.508;2022-12-07T00:54:04;7.15;;;4.80;;
56201;SDS011;42117;50.360;3.508;2022-12-07T00:56:30;14.57;;;6.72;;
56201;SDS011;42117;50.360;3.508;2022-12-07T00:58:57;10.15;;;5.82;;
56201;SDS011;42117;50.360;3.508;2022-12-07T01:01:25;12.90;;;5.78;;
56201;SDS011;42117;50.360;3.508;2022-12-07T01:03:52;11.15;;;6.40;;
56201;SDS011;42117;50.360;3.508;2022-12-07T01:06:19;4.20;;;2.95;;
56201;SDS011;42117;50.360;3.508;2022-12-07T01:08:45;12.40;;;5.82;;
56201;SDS011;42117;50.360;3.508;2022-12-07T01:11:12;8.13;;;3.28;;
56201;SDS011;42117;50.360;3.508;2022-12-07T01:13:38;23.75;;;6.70;;
56201;SDS011;42117;50.360;3.508;2022-12-07T01:16:06;2.00;;;1.95;;
56201;SDS011;42117;50.360;3.508;2022-12-07T01:18:33;10.68;;;4.82;;
56201;SDS011;42117;50.360;3.508;2022-12-07T01:21:06;5.93;;;4.18;;
56201;SDS011;42117;50.360;3.508;2022-12-07T01:23:33;10.15;;;6.38;;
56201;SDS011;42117;50.360;3.508;2022-12-07T01:26:00;9.18;;;4.43;;
56201;SDS011;42117;50.360;3.508;2022-12-07T01:28:26;8.13;;;4.88;;
56201;SDS011;42117;50.360;3.508;2022-12-07T01:30:56;10.73;;;5.10;;
56201;SDS011;42117;50.360;3.508;2022-12-07T01:33:22;4.22;;;3.58;;
56201;SDS011;42117;50.360;3.508;2022-12-07T01:35:49;12.25;;;4.20;;
56201;SDS011;42117;50.360;3.508;2022-12-07T01:38:15;5.07;;;4.13;;
56201;SDS011;42117;50.360;3.508;2022-12-07T01:40:41;4.13;;;3.63;;
56201;SDS011;42117;50.360;3.508;2022-12-07T01:43:14;20.02;;;6.38;;
56201;SDS011;42117;50.360;3.508;2022-12-07T01:45:43;10.07;;;3.38;;
56201;SDS011;42117;50.360;3.508;2022-12-07T01:48:09;2.08;;;1.95;;
56201;SDS011;42117;50.360;3.508;2022-12-07T01:50:36;8.88;;;4.30;;
56201;SDS011;42117;50.360;3.508;2022-12-07T01:53:05;2.45;;;2.05;;
56201;SDS011;42117;50.360;3.508;2022-12-07T01:55:31;5.20;;;3.50;;
56201;SDS011;42117;50.360;3.508;2022-12-07T01:57:58;12.80;;;5.40;;
56201;SDS011;42117;50.360;3.508;2022-12-07T02:00:24;6.03;;;4.05;;
56201;SDS011;42117;50.360;3.508;2022-12-07T02:05:19;9.25;;;3.40;;
56201;SDS011;42117;50.360;3.508;2022-12-07T02:07:46;11.85;;;5.97;;
56201;SDS011;42117;50.360;3.508;2022-12-07T02:12:43;15.80;;;5.78;;
56201;SDS011;42117;50.360;3.508;2022-12-07T02:15:10;13.40;;;6.45;;
56201;SDS011;42117;50.360;3.508;2022-12-07T02:24:58;5.28;;;3.80;;
56201;SDS011;42117;50.360;3.508;2022-12-07T02:27:29;11.30;;;6.22;;
56201;SDS011;42117;50.360;3.508;2022-12-07T02:30:02;8.27;;;5.00;;
56201;SDS011;42117;50.360;3.508;2022-12-07T02:37:29;12.25;;;3.65;;
56201;SDS011;42117;50.360;3.508;2022-12-07T02:40:01;24.98;;;6.72;;
56201;SDS011;42117;50.360;3.508;2022-12-07T02:45:25;9.77;;;5.20;;
56201;SDS011;42117;50.360;3.508;2022-12-07T02:47:51;5.82;;;2.95;;
56201;SDS011;42117;50.360;3.508;2022-12-07T02:50:22;8.50;;;4.53;;
56201;SDS011;42117;50.360;3.508;2022-12-07T02:52:48;14.50;;;5.80;;
56201;SDS011;42117;50.360;3.508;2022-12-07T02:55:15;6.28;;;4.45;;
56201;SDS011;42117;50.360;3.508;2022-12-07T02:57:45;8.80;;;5.90;;
56201;SDS011;42117;50.360;3.508;2022-12-07T03:00:16;5.57;;;4.45;;
56201;SDS011;42117;50.360;3.508;2022-12-07T03:02:50;14.35;;;5.20;;
56201;SDS011;42117;50.360;3.508;2022-12-07T03:05:25;18.98;;;7.07;;
56201;SDS011;42117;50.360;3.508;2022-12-07T03:10:22;4.45;;;3.45;;
56201;SDS011;42117;50.360;3.508;2022-12-07T03:13:05;18.00;;;5.78;;
56201;SDS011;42117;50.360;3.508;2022-12-07T03:15:43;19.17;;;5.75;;
56201;SDS011;42117;50.360;3.508;2022-12-07T03:18:11;13.35;;;6.13;;
56201;SDS011;42117;50.360;3.508;2022-12-07T03:20:38;8.20;;;5.75;;
56201;SDS011;42117;50.360;3.508;2022-12-07T03:23:06;11.73;;;6.32;;
56201;SDS011;42117;50.360;3.508;2022-12-07T03:25:35;10.07;;;5.80;;
56201;SDS011;42117;50.360;3.508;2022-12-07T03:28:04;11.95;;;6.75;;
56201;SDS011;42117;50.360;3.508;2022-12-07T03:33:18;10.85;;;6.35;;
56201;SDS011;42117;50.360;3.508;2022-12-07T03:35:54;16.63;;;6.65;;
56201;SDS011;42117;50.360;3.508;2022-12-07T03:38:37;16.23;;;6.47;;
56201;SDS011;42117;50.360;3.508;2022-12-07T03:41:08;11.45;;;6.28;;
56201;SDS011;42117;50.360;3.508;2022-12-07T03:43:35;12.32;;;5.40;;
56201;SDS011;42117;50.360;3.508;2022-12-07T03:46:25;4.95;;;3.65;;
56201;SDS011;42117;50.360;3.508;2022-12-07T03:49:03;12.38;;;6.63;;
56201;SDS011;42117;50.360;3.508;2022-12-07T03:56:50;1.83;;;1.73;;
56201;SDS011;42117;50.360;3.508;2022-12-07T03:59:17;12.07;;;5.95;;
56201;SDS011;42117;50.360;3.508;2022-12-07T04:01:44;14.05;;;7.30;;
56201;SDS011;42117;50.360;3.508;2022-12-07T04:04:11;13.63;;;6.53;;
56201;SDS011;42117;50.360;3.508;2022-12-07T04:06:37;13.50;;;7.03;;
56201;SDS011;42117;50.360;3.508;2022-12-07T04:09:03;14.25;;;7.25;;
56201;SDS011;42117;50.360;3.508;2022-12-07T04:11:29;13.10;;;7.03;;
56201;SDS011;42117;50.360;3.508;2022-12-07T04:13:55;15.27;;;6.65;;
56201;SDS011;42117;50.360;3.508;2022-12-07T04:16:40;14.20;;;5.95;;
56201;SDS011;42117;50.360;3.508;2022-12-07T04:19:06;14.63;;;6.25;;
56201;SDS011;42117;50.360;3.508;2022-12-07T04:21:32;10.38;;;4.82;;
56201;SDS011;42117;50.360;3.508;2022-12-07T04:23:58;12.25;;;5.38;;
56201;SDS011;42117;50.360;3.508;2022-12-07T04:26:24;22.77;;;6.22;;
56201;SDS011;42117;50.360;3.508;2022-12-07T04:28:50;11.63;;;7.10;;
56201;SDS011;42117;50.360;3.508;2022-12-07T04:31:16;15.32;;;6.20;;
56201;SDS011;42117;50.360;3.508;2022-12-07T04:33:42;13.32;;;5.97;;
56201;SDS011;42117;50.360;3.508;2022-12-07T04:36:08;10.48;;;5.38;;
56201;SDS011;42117;50.360;3.508;2022-12-07T04:38:34;10.80;;;6.35;;
56201;SDS011;42117;50.360;3.508;2022-12-07T04:41:04;15.63;;;6.68;;
56201;SDS011;42117;50.360;3.508;2022-12-07T04:45:56;17.20;;;6.38;;
56201;SDS011;42117;50.360;3.508;2022-12-07T04:48:22;13.32;;;5.28;;
56201;SDS011;42117;50.360;3.508;2022-12-07T04:50:49;17.40;;;6.78;;
56201;SDS011;42117;50.360;3.508;2022-12-07T04:53:15;11.45;;;6.75;;
56201;SDS011;42117;50.360;3.508;2022-12-07T04:55:41;9.05;;;4.50;;
56201;SDS011;42117;50.360;3.508;2022-12-07T04:58:07;8.57;;;5.38;;
56201;SDS011;42117;50.360;3.508;2022-12-07T05:00:33;8.80;;;4.90;;
56201;SDS011;42117;50.360;3.508;2022-12-07T05:02:59;10.63;;;6.35;;
56201;SDS011;42117;50.360;3.508;2022-12-07T05:05:25;6.90;;;4.07;;
56201;SDS011;42117;50.360;3.508;2022-12-07T05:07:51;24.58;;;5.40;;
56201;SDS011;42117;50.360;3.508;2022-12-07T05:10:17;9.95;;;5.18;;
56201;SDS011;42117;50.360;3.508;2022-12-07T05:12:43;19.02;;;7.40;;
56201;SDS011;42117;50.360;3.508;2022-12-07T05:15:10;12.65;;;5.50;;
56201;SDS011;42117;50.360;3.508;2022-12-07T05:17:36;7.97;;;5.00;;
56201;SDS011;42117;50.360;3.508;2022-12-07T05:20:02;18.95;;;7.20;;
56201;SDS011;42117;50.360;3.508;2022-12-07T05:22:28;10.23;;;5.53;;
56201;SDS011;42117;50.360;3.508;2022-12-07T05:24:55;11.32;;;7.07;;
56201;SDS011;42117;50.360;3.508;2022-12-07T05:27:21;17.80;;;9.07;;
56201;SDS011;42117;50.360;3.508;2022-12-07T05:29:47;13.27;;;6.43;;
56201;SDS011;42117;50.360;3.508;2022-12-07T05:32:13;18.38;;;6.93;;
56201;SDS011;42117;50.360;3.508;2022-12-07T05:34:39;22.02;;;8.10;;
56201;SDS011;42117;50.360;3.508;2022-12-07T05:37:05;19.95;;;7.30;;
56201;SDS011;42117;50.360;3.508;2022-12-07T05:39:31;12.73;;;6.13;;
56201;SDS011;42117;50.360;3.508;2022-12-07T05:41:57;12.57;;;6.95;;
56201;SDS011;42117;50.360;3.508;2022-12-07T05:44:38;11.25;;;6.45;;
56201;SDS011;42117;50.360;3.508;2022-12-07T05:47:05;10.68;;;6.20;;
56201;SDS011;42117;50.360;3.508;2022-12-07T05:49:31;10.13;;;6.53;;
56201;SDS011;42117;50.360;3.508;2022-12-07T05:51:57;21.35;;;7.03;;
56201;SDS011;42117;50.360;3.508;2022-12-07T05:54:23;13.65;;;5.85;;
56201;SDS011;42117;50.360;3.508;2022-12-07T05:56:52;21.75;;;8.48;;
56201;SDS011;42117;50.360;3.508;2022-12-07T05:59:18;13.40;;;6.70;;
56201;SDS011;42117;50.360;3.508;2022-12-07T06:01:48;19.42;;;7.57;;
56201;SDS011;42117;50.360;3.508;2022-12-07T06:04:14;11.88;;;5.95;;
56201;SDS011;42117;50.360;3.508;2022-12-07T06:06:40;15.07;;;7.28;;
56201;SDS011;42117;50.360;3.508;2022-12-07T06:09:06;21.23;;;7.25;;
56201;SDS011;42117;50.360;3.508;2022-12-07T06:11:32;12.98;;;6.00;;
56201;SDS011;42117;50.360;3.508;2022-12-07T06:14:17;15.43;;;6.18;;
56201;SDS011;42117;50.360;3.508;2022-12-07T06:16:43;15.23;;;4.57;;
56201;SDS011;42117;50.360;3.508;2022-12-07T06:19:09;17.05;;;6.55;;
56201;SDS011;42117;50.360;3.508;2022-12-07T06:21:35;13.45;;;6.45;;
56201;SDS011;42117;50.360;3.508;2022-12-07T06:24:02;24.08;;;7.90;;
56201;SDS011;42117;50.360;3.508;2022-12-07T06:26:29;21.40;;;6.80;;
56201;SDS011;42117;50.360;3.508;2022-12-07T06:28:55;13.52;;;6.20;;
56201;SDS011;42117;50.360;3.508;2022-12-07T06:31:21;13.85;;;6.72;;
56201;SDS011;42117;50.360;3.508;2022-12-07T06:33:47;12.50;;;5.78;;
56201;SDS011;42117;50.360;3.508;2022-12-07T06:36:13;23.58;;;7.93;;
56201;SDS011;42117;50.360;3.508;2022-12-07T06:38:39;15.35;;;6.28;;
56201;SDS011;42117;50.360;3.508;2022-12-07T06:41:05;11.20;;;5.85;;
56201;SDS011;42117;50.360;3.508;2022-12-07T06:43:31;10.02;;;5.35;;
56201;SDS011;42117;50.360;3.508;2022-12-07T06:45:57;21.55;;;7.88;;
56201;SDS011;42117;50.360;3.508;2022-12-07T06:48:23;20.65;;;7.70;;
56201;SDS011;42117;50.360;3.508;2022-12-07T06:50:50;13.15;;;5.43;;
56201;SDS011;42117;50.360;3.508;2022-12-07T06:53:18;14.05;;;6.70;;
56201;SDS011;42117;50.360;3.508;2022-12-07T06:55:44;19.30;;;6.80;;
56201;SDS011;42117;50.360;3.508;2022-12-07T06:58:13;15.82;;;6.82;;
56201;SDS011;42117;50.360;3.508;2022-12-07T07:00:39;8.15;;;4.43;;
56201;SDS011;42117;50.360;3.508;2022-12-07T07:03:05;14.70;;;6.57;;
56201;SDS011;42117;50.360;3.508;2022-12-07T07:05:31;14.70;;;5.75;;
56201;SDS011;42117;50.360;3.508;2022-12-07T07:07:57;8.73;;;2.72;;
56201;SDS011;42117;50.360;3.508;2022-12-07T07:10:25;15.63;;;6.40;;
56201;SDS011;42117;50.360;3.508;2022-12-07T07:12:51;10.18;;;5.20;;
56201;SDS011;42117;50.360;3.508;2022-12-07T07:15:17;11.60;;;5.70;;
56201;SDS011;42117;50.360;3.508;2022-12-07T07:17:43;14.27;;;5.35;;
56201;SDS011;42117;50.360;3.508;2022-12-07T07:20:10;10.25;;;4.85;;
56201;SDS011;42117;50.360;3.508;2022-12-07T07:22:36;3.88;;;2.60;;
56201;SDS011;42117;50.360;3.508;2022-12-07T07:25:02;12.95;;;5.03;;
56201;SDS011;42117;50.360;3.508;2022-12-07T07:27:28;13.43;;;5.60;;
56201;SDS011;42117;50.360;3.508;2022-12-07T07:29:54;6.60;;;3.90;;
56201;SDS011;42117;50.360;3.508;2022-12-07T07:32:20;18.52;;;5.68;;
56201;SDS011;42117;50.360;3.508;2022-12-07T07:34:47;14.38;;;4.28;;
56201;SDS011;42117;50.360;3.508;2022-12-07T07:37:13;7.85;;;4.80;;
56201;SDS011;42117;50.360;3.508;2022-12-07T07:39:39;9.45;;;4.85;;
56201;SDS011;42117;50.360;3.508;2022-12-07T07:42:05;19.05;;;5.38;;
56201;SDS011;42117;50.360;3.508;2022-12-07T07:44:32;14.60;;;6.53;;
56201;SDS011;42117;50.360;3.508;2022-12-07T07:46:58;17.13;;;6.53;;
56201;SDS011;42117;50.360;3.508;2022-12-07T07:49:25;12.77;;;6.90;;
56201;SDS011;42117;50.360;3.508;2022-12-07T07:51:51;15.98;;;7.00;;
56201;SDS011;42117;50.360;3.508;2022-12-07T07:54:17;12.23;;;5.45;;
56201;SDS011;42117;50.360;3.508;2022-12-07T07:56:43;14.95;;;6.13;;
56201;SDS011;42117;50.360;3.508;2022-12-07T07:59:09;15.82;;;6.18;;
56201;SDS011;42117;50.360;3.508;2022-12-07T08:01:35;14.85;;;5.93;;
56201;SDS011;42117;50.360;3.508;2022-12-07T08:04:01;23.70;;;7.20;;
56201;SDS011;42117;50.360;3.508;2022-12-07T08:06:27;16.35;;;5.78;;
56201;SDS011;42117;50.360;3.508;2022-12-07T08:08:53;11.93;;;6.18;;
56201;SDS011;42117;50.360;3.508;2022-12-07T08:11:19;13.38;;;6.07;;
56201;SDS011;42117;50.360;3.508;2022-12-07T08:13:46;11.48;;;5.60;;
56201;SDS011;42117;50.360;3.508;2022-12-07T08:16:12;26.73;;;7.40;;
56201;SDS011;42117;50.360;3.508;2022-12-07T08:18:39;13.38;;;6.95;;
56201;SDS011;42117;50.360;3.508;2022-12-07T08:21:06;12.25;;;5.70;;
56201;SDS011;42117;50.360;3.508;2022-12-07T08:23:32;10.05;;;5.50;;
56201;SDS011;42117;50.360;3.508;2022-12-07T08:26:02;21.27;;;8.35;;
56201;SDS011;42117;50.360;3.508;2022-12-07T08:28:29;15.70;;;6.40;;
56201;SDS011;42117;50.360;3.508;2022-12-07T08:31:01;15.25;;;5.68;;
56201;SDS011;42117;50.360;3.508;2022-12-07T08:33:27;15.98;;;5.40;;
56201;SDS011;42117;50.360;3.508;2022-12-07T08:35:53;10.23;;;4.28;;
56201;SDS011;42117;50.360;3.508;2022-12-07T08:38:19;8.25;;;4.00;;
56201;SDS011;42117;50.360;3.508;2022-12-07T08:40:53;10.23;;;5.18;;
56201;SDS011;42117;50.360;3.508;2022-12-07T08:43:19;14.25;;;6.57;;
56201;SDS011;42117;50.360;3.508;2022-12-07T08:45:46;22.77;;;7.25;;
56201;SDS011;42117;50.360;3.508;2022-12-07T08:48:13;14.70;;;6.28;;
56201;SDS011;42117;50.360;3.508;2022-12-07T08:50:42;22.27;;;7.50;;
56201;SDS011;42117;50.360;3.508;2022-12-07T08:53:08;8.95;;;5.53;;
56201;SDS011;42117;50.360;3.508;2022-12-07T08:55:34;15.73;;;5.22;;
56201;SDS011;42117;50.360;3.508;2022-12-07T08:58:00;11.50;;;5.40;;
56201;SDS011;42117;50.360;3.508;2022-12-07T09:00:27;13.15;;;5.72;;
56201;SDS011;42117;50.360;3.508;2022-12-07T09:02:54;20.00;;;7.35;;
56201;SDS011;42117;50.360;3.508;2022-12-07T09:05:20;17.83;;;6.82;;
56201;SDS011;42117;50.360;3.508;2022-12-07T09:07:47;11.48;;;6.03;;
56201;SDS011;42117;50.360;3.508;2022-12-07T09:10:14;18.02;;;6.57;;
56201;SDS011;42117;50.360;3.508;2022-12-07T09:12:40;14.23;;;4.78;;
56201;SDS011;42117;50.360;3.508;2022-12-07T09:15:06;14.20;;;5.57;;
56201;SDS011;42117;50.360;3.508;2022-12-07T09:17:33;10.65;;;5.05;;
56201;SDS011;42117;50.360;3.508;2022-12-07T09:19:59;15.75;;;3.10;;
56201;SDS011;42117;50.360;3.508;2022-12-07T09:22:28;6.82;;;4.00;;
56201;SDS011;42117;50.360;3.508;2022-12-07T09:24:55;10.23;;;5.30;;
56201;SDS011;42117;50.360;3.508;2022-12-07T09:27:21;7.78;;;4.80;;
56201;SDS011;42117;50.360;3.508;2022-12-07T09:29:47;10.95;;;4.63;;
56201;SDS011;42117;50.360;3.508;2022-12-07T09:32:13;5.10;;;2.80;;
56201;SDS011;42117;50.360;3.508;2022-12-07T09:34:39;7.68;;;4.20;;
56201;SDS011;42117;50.360;3.508;2022-12-07T09:37:05;3.72;;;2.10;;
56201;SDS011;42117;50.360;3.508;2022-12-07T09:39:31;8.90;;;3.15;;
56201;SDS011;42117;50.360;3.508;2022-12-07T09:41:58;7.88;;;4.25;;
56201;SDS011;42117;50.360;3.508;2022-12-07T09:44:25;10.18;;;2.92;;
56201;SDS011;42117;50.360;3.508;2022-12-07T09:46:51;5.68;;;2.17;;
56201;SDS011;42117;50.360;3.508;2022-12-07T09:49:19;3.75;;;2.60;;
56201;SDS011;42117;50.360;3.508;2022-12-07T09:51:46;6.82;;;3.00;;
56201;SDS011;42117;50.360;3.508;2022-12-07T09:54:13;10.73;;;3.25;;
56201;SDS011;42117;50.360;3.508;2022-12-07T09:56:39;5.03;;;3.22;;
56201;SDS011;42117;50.360;3.508;2022-12-07T09:59:05;6.07;;;2.75;;
56201;SDS011;42117;50.360;3.508;2022-12-07T10:01:32;4.30;;;2.10;;
56201;SDS011;42117;50.360;3.508;2022-12-07T10:04:18;10.55;;;2.28;;
56201;SDS011;42117;50.360;3.508;2022-12-07T10:06:46;4.22;;;2.45;;
56201;SDS011;42117;50.360;3.508;2022-12-07T10:09:13;3.15;;;2.53;;
56201;SDS011;42117;50.360;3.508;2022-12-07T10:14:24;8.15;;;3.20;;
56201;SDS011;42117;50.360;3.508;2022-12-07T10:16:52;8.20;;;2.88;;
56201;SDS011;42117;50.360;3.508;2022-12-07T10:19:31;3.30;;;2.88;;
56201;SDS011;42117;50.360;3.508;2022-12-07T10:24:26;9.52;;;2.95;;
56201;SDS011;42117;50.360;3.508;2022-12-07T10:26:52;7.80;;;2.88;;
56201;SDS011;42117;50.360;3.508;2022-12-07T10:29:29;2.55;;;1.95;;
56201;SDS011;42117;50.360;3.508;2022-12-07T10:31:57;4.22;;;2.55;;
56201;SDS011;42117;50.360;3.508;2022-12-07T10:34:28;8.80;;;2.25;;
56201;SDS011;42117;50.360;3.508;2022-12-07T10:37:06;3.92;;;2.20;;
56201;SDS011;42117;50.360;3.508;2022-12-07T10:39:40;4.10;;;2.35;;
56201;SDS011;42117;50.360;3.508;2022-12-07T10:42:14;6.35;;;2.95;;
56201;SDS011;42117;50.360;3.508;2022-12-07T10:44:41;2.72;;;2.08;;
56201;SDS011;42117;50.360;3.508;2022-12-07T10:52:41;3.67;;;1.90;;
56201;SDS011;42117;50.360;3.508;2022-12-07T10:55:15;7.90;;;1.90;;
56201;SDS011;42117;50.360;3.508;2022-12-07T11:07:58;5.28;;;1.90;;
56201;SDS011;42117;50.360;3.508;2022-12-07T11:13:02;4.68;;;1.33;;
56201;SDS011;42117;50.360;3.508;2022-12-07T11:38:22;1.42;;;1.35;;
56201;SDS011;42117;50.360;3.508;2022-12-07T11:40:50;4.10;;;1.55;;
56201;SDS011;42117;50.360;3.508;2022-12-07T11:43:19;1.05;;;1.05;;
56201;SDS011;42117;50.360;3.508;2022-12-07T11:46:05;9.10;;;1.95;;
56201;SDS011;42117;50.360;3.508;2022-12-07T11:51:18;8.75;;;1.60;;
56201;SDS011;42117;50.360;3.508;2022-12-07T11:54:20;2.35;;;0.82;;
56201;SDS011;42117;50.360;3.508;2022-12-07T11:56:38;9.40;;;2.50;;
56201;SDS011;42117;50.360;3.508;2022-12-07T12:06:30;1.98;;;0.85;;
56201;SDS011;42117;50.360;3.508;2022-12-07T12:09:00;2.55;;;1.40;;
56201;SDS011;42117;50.360;3.508;2022-12-07T12:14:17;3.75;;;2.38;;
56201;SDS011;42117;50.360;3.508;2022-12-07T12:19:22;6.85;;;2.08;;
56201;SDS011;42117;50.360;3.508;2022-12-07T12:21:49;2.60;;;1.40;;
56201;SDS011;42117;50.360;3.508;2022-12-07T12:24:20;5.20;;;1.90;;
56201;SDS011;42117;50.360;3.508;2022-12-07T12:26:57;4.47;;;1.40;;
56201;SDS011;42117;50.360;3.508;2022-12-07T12:29:35;1.88;;;1.77;;
56201;SDS011;42117;50.360;3.508;2022-12-07T12:32:17;7.80;;;1.67;;
56201;SDS011;42117;50.360;3.508;2022-12-07T12:37:36;5.03;;;1.75;;
56201;SDS011;42117;50.360;3.508;2022-12-07T12:42:43;4.03;;;1.52;;
56201;SDS011;42117;50.360;3.508;2022-12-07T12:47:40;1.58;;;1.48;;
56201;SDS011;42117;50.360;3.508;2022-12-07T12:50:17;7.03;;;2.05;;
56201;SDS011;42117;50.360;3.508;2022-12-07T12:57:36;1.38;;;1.27;;
56201;SDS011;42117;50.360;3.508;2022-12-07T13:02:50;2.45;;;1.67;;
56201;SDS011;42117;50.360;3.508;2022-12-07T13:05:24;3.42;;;2.13;;
56201;SDS011;42117;50.360;3.508;2022-12-07T13:07:53;2.35;;;1.60;;
56201;SDS011;42117;50.360;3.508;2022-12-07T13:18:01;3.30;;;2.08;;
56201;SDS011;42117;50.360;3.508;2022-12-07T13:20:46;5.28;;;1.85;;
56201;SDS011;42117;50.360;3.508;2022-12-07T13:23:13;6.80;;;1.73;;
56201;SDS011;42117;50.360;3.508;2022-12-07T13:25:54;2.10;;;2.00;;
56201;SDS011;42117;50.360;3.508;2022-12-07T13:28:21;7.90;;;2.67;;
56201;SDS011;42117;50.360;3.508;2022-12-07T13:33:17;1.10;;;1.10;;
56201;SDS011;42117;50.360;3.508;2022-12-07T13:35:44;2.95;;;2.30;;
56201;SDS011;42117;50.360;3.508;2022-12-07T13:38:19;2.50;;;1.63;;
56201;SDS011;42117;50.360;3.508;2022-12-07T13:43:41;4.88;;;2.13;;
56201;SDS011;42117;50.360;3.508;2022-12-07T13:46:07;1.85;;;1.63;;
56201;SDS011;42117;50.360;3.508;2022-12-07T13:53:47;11.48;;;1.70;;
56201;SDS011;42117;50.360;3.508;2022-12-07T13:56:14;2.80;;;1.90;;
56201;SDS011;42117;50.360;3.508;2022-12-07T13:58:41;2.63;;;1.67;;
56201;SDS011;42117;50.360;3.508;2022-12-07T14:01:07;7.82;;;1.77;;
56201;SDS011;42117;50.360;3.508;2022-12-07T14:03:34;7.13;;;1.83;;
56201;SDS011;42117;50.360;3.508;2022-12-07T14:06:46;15.73;;;2.17;;
56201;SDS011;42117;50.360;3.508;2022-12-07T14:09:06;2.58;;;1.60;;
56201;SDS011;42117;50.360;3.508;2022-12-07T14:11:32;8.35;;;2.20;;
56201;SDS011;42117;50.360;3.508;2022-12-07T14:13:59;2.40;;;2.20;;
56201;SDS011;42117;50.360;3.508;2022-12-07T14:16:35;3.97;;;1.92;;
56201;SDS011;42117;50.360;3.508;2022-12-07T14:19:03;6.00;;;2.00;;
56201;SDS011;42117;50.360;3.508;2022-12-07T14:21:31;3.28;;;1.88;;
56201;SDS011;42117;50.360;3.508;2022-12-07T14:26:32;5.78;;;2.28;;
56201;SDS011;42117;50.360;3.508;2022-12-07T14:31:43;5.07;;;2.08;;
56201;SDS011;42117;50.360;3.508;2022-12-07T14:34:12;4.38;;;2.05;;
56201;SDS011;42117;50.360;3.508;2022-12-07T14:36:38;2.55;;;2.20;;
56201;SDS011;42117;50.360;3.508;2022-12-07T14:39:04;8.48;;;2.47;;
56201;SDS011;42117;50.360;3.508;2022-12-07T14:41:30;6.30;;;3.25;;
56201;SDS011;42117;50.360;3.508;2022-12-07T14:44:14;7.68;;;3.00;;
56201;SDS011;42117;50.360;3.508;2022-12-07T14:46:40;3.58;;;2.42;;
56201;SDS011;42117;50.360;3.508;2022-12-07T14:49:06;7.93;;;2.58;;
56201;SDS011;42117;50.360;3.508;2022-12-07T14:51:32;9.32;;;2.80;;
56201;SDS011;42117;50.360;3.508;2022-12-07T14:53:59;1.58;;;1.38;;
56201;SDS011;42117;50.360;3.508;2022-12-07T14:56:25;3.90;;;2.38;;
56201;SDS011;42117;50.360;3.508;2022-12-07T14:58:52;4.57;;;2.10;;
56201;SDS011;42117;50.360;3.508;2022-12-07T15:01:18;3.60;;;2.22;;
56201;SDS011;42117;50.360;3.508;2022-12-07T15:03:44;5.90;;;1.73;;
56201;SDS011;42117;50.360;3.508;2022-12-07T15:06:13;5.18;;;2.13;;
56201;SDS011;42117;50.360;3.508;2022-12-07T15:08:39;1.80;;;1.70;;
56201;SDS011;42117;50.360;3.508;2022-12-07T15:11:09;1.25;;;1.15;;
56201;SDS011;42117;50.360;3.508;2022-12-07T15:13:36;1.10;;;1.10;;
56201;SDS011;42117;50.360;3.508;2022-12-07T15:16:20;3.45;;;1.30;;
56201;SDS011;42117;50.360;3.508;2022-12-07T15:18:46;1.23;;;1.20;;
56201;SDS011;42117;50.360;3.508;2022-12-07T15:21:15;4.55;;;1.90;;
56201;SDS011;42117;50.360;3.508;2022-12-07T15:23:42;1.20;;;1.20;;
56201;SDS011;42117;50.360;3.508;2022-12-07T15:26:09;5.63;;;1.60;;
56201;SDS011;42117;50.360;3.508;2022-12-07T15:28:35;2.50;;;1.60;;
56201;SDS011;42117;50.360;3.508;2022-12-07T15:31:01;5.72;;;1.58;;
56201;SDS011;42117;50.360;3.508;2022-12-07T15:33:28;3.05;;;1.55;;
56201;SDS011;42117;50.360;3.508;2022-12-07T15:35:53;3.30;;;2.08;;
56201;SDS011;42117;50.360;3.508;2022-12-07T15:38:19;1.85;;;1.40;;
56201;SDS011;42117;50.360;3.508;2022-12-07T15:40:47;3.50;;;1.83;;
56201;SDS011;42117;50.360;3.508;2022-12-07T15:43:13;1.67;;;1.58;;
56201;SDS011;42117;50.360;3.508;2022-12-07T15:45:58;2.30;;;2.10;;
56201;SDS011;42117;50.360;3.508;2022-12-07T15:48:24;1.42;;;1.33;;
56201;SDS011;42117;50.360;3.508;2022-12-07T15:50:50;3.92;;;2.33;;
56201;SDS011;42117;50.360;3.508;2022-12-07T15:53:17;4.57;;;1.35;;
56201;SDS011;42117;50.360;3.508;2022-12-07T15:55:43;3.38;;;1.77;;
56201;SDS011;42117;50.360;3.508;2022-12-07T15:58:09;1.45;;;1.35;;
56201;SDS011;42117;50.360;3.508;2022-12-07T16:00:35;4.03;;;1.45;;
56201;SDS011;42117;50.360;3.508;2022-12-07T16:03:01;6.13;;;1.83;;
56201;SDS011;42117;50.360;3.508;2022-12-07T16:05:27;3.35;;;2.00;;
56201;SDS011;42117;50.360;3.508;2022-12-07T16:07:53;2.60;;;1.95;;
56201;SDS011;42117;50.360;3.508;2022-12-07T16:10:19;3.85;;;1.42;;
56201;SDS011;42117;50.360;3.508;2022-12-07T16:12:45;2.00;;;1.85;;
56201;SDS011;42117;50.360;3.508;2022-12-07T16:15:11;9.18;;;2.92;;
56201;SDS011;42117;50.360;3.508;2022-12-07T16:17:37;3.78;;;2.75;;
56201;SDS011;42117;50.360;3.508;2022-12-07T16:20:03;4.20;;;1.92;;
56201;SDS011;42117;50.360;3.508;2022-12-07T16:22:29;2.65;;;1.60;;
56201;SDS011;42117;50.360;3.508;2022-12-07T16:24:56;2.03;;;1.92;;
56201;SDS011;42117;50.360;3.508;2022-12-07T16:27:22;12.23;;;2.15;;
56201;SDS011;42117;50.360;3.508;2022-12-07T16:29:48;4.18;;;1.73;;
56201;SDS011;42117;50.360;3.508;2022-12-07T16:32:14;10.00;;;3.13;;
56201;SDS011;42117;50.360;3.508;2022-12-07T16:34:40;4.53;;;2.17;;
56201;SDS011;42117;50.360;3.508;2022-12-07T16:37:06;4.07;;;1.83;;
56201;SDS011;42117;50.360;3.508;2022-12-07T16:39:32;11.38;;;2.65;;
56201;SDS011;42117;50.360;3.508;2022-12-07T16:41:59;6.15;;;2.40;;
56201;SDS011;42117;50.360;3.508;2022-12-07T16:44:25;6.38;;;2.58;;
56201;SDS011;42117;50.360;3.508;2022-12-07T16:46:51;4.47;;;2.90;;
56201;SDS011;42117;50.360;3.508;2022-12-07T16:49:17;3.30;;;2.65;;
56201;SDS011;42117;50.360;3.508;2022-12-07T16:51:44;4.15;;;2.58;;
56201;SDS011;42117;50.360;3.508;2022-12-07T16:54:11;7.75;;;2.60;;
56201;SDS011;42117;50.360;3.508;2022-12-07T16:56:37;5.75;;;2.90;;
56201;SDS011;42117;50.360;3.508;2022-12-07T16:59:04;7.22;;;3.35;;